createdAt,value
2023-02-06T00:01:37.439Z,3.87
2023-02-06T00:04:05.843Z,4.30
2023-02-06T00:06:35.765Z,2.77
2023-02-06T00:09:04.296Z,6.27
2023-02-06T00:11:32.567Z,4.10
2023-02-06T00:14:00.937Z,5.00
2023-02-06T00:16:30.270Z,3.73
2023-02-06T00:18:59.567Z,3.47
2023-02-06T00:21:28.411Z,5.23
2023-02-06T00:23:58.920Z,4.33
2023-02-06T00:26:27.645Z,4.40
2023-02-06T00:28:55.863Z,3.67
2023-02-06T00:31:24.123Z,3.50
2023-02-06T00:33:52.437Z,4.83
2023-02-06T00:36:20.668Z,4.40
2023-02-06T00:38:48.917Z,3.57
2023-02-06T00:41:18.521Z,3.90
2023-02-06T00:43:46.799Z,5.07
2023-02-06T00:46:15.395Z,4.17
2023-02-06T00:48:43.646Z,5.77
2023-02-06T00:51:11.835Z,5.27
2023-02-06T00:53:40.361Z,5.53
2023-02-06T00:56:08.756Z,4.93
2023-02-06T00:58:38.366Z,6.27
2023-02-06T01:01:06.686Z,3.60
2023-02-06T01:03:34.848Z,5.17
2023-02-06T01:06:03.312Z,4.07
2023-02-06T01:08:31.572Z,3.80
2023-02-06T01:10:59.839Z,2.93
2023-02-06T01:13:29.243Z,5.43
2023-02-06T01:15:58.827Z,4.47
2023-02-06T01:18:27.095Z,4.03
2023-02-06T01:20:55.319Z,4.00
2023-02-06T01:23:25.916Z,3.13
2023-02-06T01:25:54.155Z,3.23
2023-02-06T01:28:22.324Z,3.23
2023-02-06T01:30:50.562Z,3.13
2023-02-06T01:33:20.159Z,3.90
2023-02-06T01:35:56.291Z,6.90
2023-02-06T01:38:24.492Z,3.20
2023-02-06T01:40:57.475Z,4.83
2023-02-06T01:43:25.929Z,4.10
2023-02-06T01:45:54.205Z,3.27
2023-02-06T01:48:27.558Z,4.10
2023-02-06T01:50:57.334Z,7.30
2023-02-06T01:53:26.765Z,2.20
2023-02-06T01:55:55.821Z,4.00
2023-02-06T01:58:28.039Z,2.87
2023-02-06T02:00:56.876Z,2.70
2023-02-06T02:03:26.508Z,3.20
2023-02-06T02:05:57.619Z,3.07
2023-02-06T02:08:29.501Z,3.13
2023-02-06T02:10:58.289Z,3.90
2023-02-06T02:13:29.646Z,3.30
2023-02-06T02:16:00.206Z,3.30
2023-02-06T02:18:44.631Z,3.60
2023-02-06T02:21:25.103Z,3.30
2023-02-06T02:23:56.636Z,3.80
2023-02-06T02:26:39.728Z,3.30
2023-02-06T02:29:20.870Z,4.57
2023-02-06T02:32:04.096Z,2.90
2023-02-06T02:34:54.700Z,6.20
2023-02-06T02:37:27.379Z,3.20
2023-02-06T02:39:58.858Z,3.90
2023-02-06T02:42:29.794Z,3.13
2023-02-06T02:45:00.456Z,3.53
2023-02-06T02:47:31.620Z,4.73
2023-02-06T02:50:02.073Z,3.57
2023-02-06T02:52:30.331Z,4.37
2023-02-06T02:54:58.560Z,4.63
2023-02-06T02:57:28.470Z,5.10
2023-02-06T02:59:57.964Z,6.60
2023-02-06T03:02:27.466Z,4.90
2023-02-06T03:04:57.658Z,3.43
2023-02-06T03:07:31.766Z,6.03
2023-02-06T03:10:04.817Z,4.37
2023-02-06T03:12:35.701Z,8.70
2023-02-06T03:15:07.272Z,5.97
2023-02-06T03:17:37.288Z,7.50
2023-02-06T03:20:06.825Z,4.93
2023-02-06T03:22:37.481Z,6.87
2023-02-06T03:25:08.762Z,5.57
2023-02-06T03:27:38.099Z,6.20
2023-02-06T03:30:08.200Z,6.63
2023-02-06T03:32:38.361Z,8.20
2023-02-06T03:35:08.609Z,7.83
2023-02-06T03:37:39.046Z,6.83
2023-02-06T03:40:08.565Z,6.53
2023-02-06T03:42:40.763Z,6.93
2023-02-06T03:45:11.703Z,9.70
2023-02-06T03:47:40.463Z,5.67
2023-02-06T03:50:09.874Z,7.30
2023-02-06T03:52:41.575Z,9.17
2023-02-06T03:55:14.605Z,6.77
2023-02-06T03:57:43.922Z,7.23
2023-02-06T04:00:12.825Z,7.27
2023-02-06T04:02:42.369Z,9.77
2023-02-06T04:05:10.735Z,8.40
2023-02-06T04:07:40.494Z,8.53
2023-02-06T04:10:08.871Z,8.00
2023-02-06T04:12:37.181Z,9.20
2023-02-06T04:15:05.596Z,15.60
2023-02-06T04:17:49.602Z,11.93
2023-02-06T04:20:22.111Z,16.10
2023-02-06T04:22:51.778Z,8.10
2023-02-06T04:25:20.097Z,10.77
2023-02-06T04:27:48.351Z,17.60
2023-02-06T04:30:17.913Z,15.30
2023-02-06T04:32:46.191Z,18.67
2023-02-06T04:35:14.420Z,15.67
2023-02-06T04:37:42.666Z,12.90
2023-02-06T04:40:13.302Z,10.33
2023-02-06T04:42:41.494Z,8.80
2023-02-06T04:45:10.392Z,10.30
2023-02-06T04:47:38.632Z,8.90
2023-02-06T04:50:07.357Z,8.07
2023-02-06T04:52:35.559Z,9.50
2023-02-06T04:55:03.847Z,7.87
2023-02-06T04:57:33.425Z,8.90
2023-02-06T05:00:01.642Z,10.57
2023-02-06T05:02:29.888Z,8.53
2023-02-06T05:04:58.120Z,13.80
2023-02-06T05:07:26.367Z,12.57
2023-02-06T05:09:54.631Z,11.97
2023-02-06T05:12:22.881Z,12.10
2023-02-06T05:14:52.645Z,9.40
2023-02-06T05:17:20.947Z,8.57
2023-02-06T05:19:49.229Z,9.57
2023-02-06T05:22:17.520Z,9.70
2023-02-06T05:24:45.760Z,9.27
2023-02-06T05:27:14.223Z,12.53
2023-02-06T05:29:42.422Z,12.00
2023-02-06T05:32:12.026Z,12.10
2023-02-06T05:34:41.265Z,8.60
2023-02-06T05:37:09.478Z,12.67
2023-02-06T05:39:37.881Z,12.17
2023-02-06T05:42:06.289Z,13.57
2023-02-06T05:44:34.840Z,14.87
2023-02-06T05:47:04.145Z,14.57
2023-02-06T05:49:33.729Z,14.43
2023-02-06T05:52:01.973Z,13.63
2023-02-06T05:54:30.212Z,10.00
2023-02-06T05:56:58.618Z,11.80
2023-02-06T05:59:26.800Z,10.07
2023-02-06T06:01:55.055Z,13.00
2023-02-06T06:04:23.394Z,14.30
2023-02-06T06:06:53.209Z,10.40
2023-02-06T06:09:21.471Z,8.93
2023-02-06T06:11:51.228Z,9.10
2023-02-06T06:14:19.882Z,8.30
2023-02-06T06:16:48.238Z,9.07
2023-02-06T06:19:18.982Z,9.33
2023-02-06T06:21:47.226Z,9.37
2023-02-06T06:24:16.901Z,8.10
2023-02-06T06:26:45.377Z,7.87
2023-02-06T06:29:13.661Z,9.13
2023-02-06T06:31:42.192Z,9.70
2023-02-06T06:34:10.613Z,9.37
2023-02-06T06:36:38.905Z,9.30
2023-02-06T06:39:07.354Z,12.30
2023-02-06T06:41:37.326Z,10.60
2023-02-06T06:44:06.226Z,10.20
2023-02-06T06:46:34.755Z,11.73
2023-02-06T06:49:02.962Z,10.17
2023-02-06T06:51:31.357Z,9.70
2023-02-06T06:53:59.817Z,11.23
2023-02-06T06:56:28.304Z,10.80
2023-02-06T06:58:58.474Z,11.00
2023-02-06T07:01:27.033Z,11.20
2023-02-06T07:03:55.339Z,9.70
2023-02-06T07:06:23.941Z,12.00
2023-02-06T07:08:52.329Z,11.43
2023-02-06T07:11:20.905Z,11.87
2023-02-06T07:13:49.129Z,9.40
2023-02-06T07:16:18.868Z,9.10
2023-02-06T07:18:47.479Z,10.90
2023-02-06T07:21:18.007Z,11.60
2023-02-06T07:23:46.537Z,10.60
2023-02-06T07:26:14.797Z,9.87
2023-02-06T07:28:43.315Z,7.40
2023-02-06T07:31:11.660Z,10.47
2023-02-06T07:33:41.268Z,11.17
2023-02-06T07:36:11.962Z,10.27
2023-02-06T07:38:40.352Z,10.83
2023-02-06T07:41:08.632Z,9.10
2023-02-06T07:43:36.878Z,10.33
2023-02-06T07:46:06.285Z,15.67
2023-02-06T07:48:35.767Z,10.00
2023-02-06T07:51:09.171Z,12.60
2023-02-06T07:53:37.758Z,13.80
2023-02-06T07:56:11.298Z,11.00
2023-02-06T07:58:39.610Z,10.20
2023-02-06T08:01:08.423Z,16.03
2023-02-06T08:03:36.878Z,10.80
2023-02-06T08:06:10.592Z,11.93
2023-02-06T08:08:38.850Z,10.70
2023-02-06T08:11:08.043Z,11.33
2023-02-06T08:13:36.665Z,10.10
2023-02-06T08:16:05.739Z,14.03
2023-02-06T08:18:34.322Z,11.20
2023-02-06T08:21:03.440Z,13.57
2023-02-06T08:23:33.223Z,7.33
2023-02-06T08:26:04.775Z,12.00
2023-02-06T08:28:35.315Z,10.73
2023-02-06T08:31:06.521Z,11.60
2023-02-06T08:33:35.762Z,12.17
2023-02-06T08:36:04.220Z,11.33
2023-02-06T08:38:33.875Z,9.97
2023-02-06T08:41:02.247Z,8.23
2023-02-06T08:43:32.240Z,10.23
2023-02-06T08:46:01.504Z,8.80
2023-02-06T08:48:30.254Z,10.90
2023-02-06T08:51:08.122Z,8.27
2023-02-06T08:53:38.222Z,11.90
2023-02-06T08:56:07.507Z,11.07
2023-02-06T08:58:36.001Z,12.03
2023-02-06T09:01:07.299Z,9.00
2023-02-06T09:03:35.545Z,10.30
2023-02-06T09:06:09.798Z,12.20
2023-02-06T09:08:40.552Z,7.80
2023-02-06T09:11:09.105Z,13.40
2023-02-06T09:13:37.585Z,13.73
2023-02-06T09:16:06.827Z,12.97
2023-02-06T09:18:35.676Z,10.90
2023-02-06T09:21:10.074Z,10.83
2023-02-06T09:23:40.122Z,9.47
2023-02-06T09:26:08.666Z,10.73
2023-02-06T09:28:37.025Z,9.70
2023-02-06T09:31:05.452Z,14.37
2023-02-06T09:33:33.735Z,14.17
2023-02-06T09:36:06.010Z,11.07
2023-02-06T09:38:34.561Z,11.07
2023-02-06T09:41:05.491Z,12.37
2023-02-06T09:43:34.611Z,12.00
2023-02-06T09:46:03.901Z,10.67
2023-02-06T09:48:34.164Z,12.10
2023-02-06T09:51:07.284Z,11.03
2023-02-06T09:53:39.927Z,12.50
2023-02-06T09:56:14.538Z,8.57
2023-02-06T09:58:44.276Z,10.70
2023-02-06T10:01:17.207Z,9.50
2023-02-06T10:03:53.672Z,9.10
2023-02-06T10:06:23.442Z,13.20
2023-02-06T10:08:54.083Z,11.60
2023-02-06T10:11:27.869Z,12.07
2023-02-06T10:13:57.584Z,13.33
2023-02-06T10:16:38.390Z,11.50
2023-02-06T10:19:10.194Z,10.40
2023-02-06T10:21:41.421Z,10.40
2023-02-06T10:24:12.229Z,10.43
2023-02-06T10:26:42.425Z,13.77
2023-02-06T10:29:22.802Z,8.40
2023-02-06T10:31:56.607Z,14.10
2023-02-06T10:34:33.289Z,14.47
2023-02-06T10:37:09.141Z,11.03
2023-02-06T10:39:52.350Z,10.33
2023-02-06T10:42:25.409Z,12.33
2023-02-06T10:45:06.555Z,4.17
2023-02-06T10:47:43.332Z,8.97
2023-02-06T10:50:20.155Z,10.10
2023-02-06T10:52:48.628Z,13.13
2023-02-06T10:55:19.383Z,11.00
2023-02-06T10:57:51.632Z,12.30
2023-02-06T11:00:25.430Z,9.57
2023-02-06T11:03:06.870Z,8.00
2023-02-06T11:05:36.679Z,8.43
2023-02-06T11:08:10.146Z,9.83
2023-02-06T11:10:39.190Z,9.13
2023-02-06T11:13:12.792Z,10.73
2023-02-06T11:15:47.879Z,10.60
2023-02-06T11:18:26.865Z,11.43
2023-02-06T11:20:55.902Z,10.03
2023-02-06T11:23:25.985Z,5.40
2023-02-06T11:25:58.536Z,11.10
2023-02-06T11:28:28.741Z,7.53
2023-02-06T11:30:58.642Z,8.33
2023-02-06T11:33:29.876Z,9.43
2023-02-06T11:36:00.159Z,11.20
2023-02-06T11:38:29.541Z,8.83
2023-02-06T11:41:00.688Z,7.60
2023-02-06T11:43:32.442Z,6.03
2023-02-06T11:46:18.550Z,12.00
2023-02-06T11:48:47.570Z,11.47
2023-02-06T11:51:16.871Z,8.03
2023-02-06T11:53:58.226Z,10.30
2023-02-06T11:56:26.954Z,10.50
2023-02-06T11:59:07.500Z,9.40
2023-02-06T12:01:40.360Z,13.83
2023-02-06T12:04:17.133Z,8.90
2023-02-06T12:06:45.508Z,4.60
2023-02-06T12:09:14.934Z,8.47
2023-02-06T12:11:48.077Z,12.73
2023-02-06T12:14:20.100Z,10.70
2023-02-06T12:16:48.961Z,4.00
2023-02-06T12:19:19.015Z,5.30
2023-02-06T12:21:49.983Z,8.50
2023-02-06T12:24:25.859Z,7.10
2023-02-06T12:26:55.627Z,10.37
2023-02-06T12:29:27.774Z,10.47
2023-02-06T12:32:00.950Z,6.20
2023-02-06T12:34:40.800Z,10.50
2023-02-06T12:37:14.460Z,4.30
2023-02-06T12:39:44.158Z,6.53
2023-02-06T12:42:27.962Z,10.30
2023-02-06T12:44:58.993Z,11.40
2023-02-06T12:47:29.677Z,9.23
2023-02-06T12:50:01.372Z,11.83
2023-02-06T12:52:31.856Z,10.00
2023-02-06T12:55:05.308Z,5.50
2023-02-06T12:57:34.479Z,10.63
2023-02-06T13:00:14.687Z,8.90
2023-02-06T13:03:07.678Z,7.50
2023-02-06T13:05:38.097Z,8.43
2023-02-06T13:08:09.238Z,11.33
2023-02-06T13:10:38.042Z,4.47
2023-02-06T13:13:06.620Z,8.40
2023-02-06T13:15:37.915Z,8.97
2023-02-06T13:18:21.412Z,8.70
2023-02-06T13:21:04.448Z,6.80
2023-02-06T13:23:32.826Z,12.17
2023-02-06T13:26:03.158Z,9.10
2023-02-06T13:28:44.843Z,10.77
2023-02-06T13:31:30.986Z,6.87
2023-02-06T13:34:02.660Z,10.67
2023-02-06T13:36:47.645Z,9.83
2023-02-06T13:39:17.151Z,6.13
2023-02-06T13:41:45.321Z,8.07
2023-02-06T13:44:18.027Z,8.33
2023-02-06T13:47:12.011Z,10.63
2023-02-06T13:50:05.909Z,5.40
2023-02-06T13:52:37.340Z,9.53
2023-02-06T13:55:15.925Z,10.30
2023-02-06T13:57:51.872Z,8.30
2023-02-06T14:00:22.905Z,9.00
2023-02-06T14:02:52.406Z,6.20
2023-02-06T14:05:23.229Z,9.93
2023-02-06T14:07:59.081Z,7.53
2023-02-06T14:10:34.144Z,9.50
2023-02-06T14:13:08.234Z,7.97
2023-02-06T14:15:39.868Z,4.50
2023-02-06T14:18:22.212Z,8.80
2023-02-06T14:20:55.854Z,9.80
2023-02-06T14:23:31.411Z,9.53
2023-02-06T14:26:06.296Z,9.67
2023-02-06T14:28:41.543Z,9.80
2023-02-06T14:31:16.231Z,9.13
2023-02-06T14:33:51.254Z,10.70
2023-02-06T14:36:25.815Z,9.10
2023-02-06T14:39:09.280Z,7.77
2023-02-06T14:41:40.139Z,8.77
2023-02-06T14:44:14.516Z,8.03
2023-02-06T14:46:44.244Z,10.60
2023-02-06T14:49:16.387Z,9.07
2023-02-06T14:51:50.216Z,10.70
2023-02-06T14:54:30.772Z,9.47
2023-02-06T14:56:59.964Z,8.37
2023-02-06T14:59:28.298Z,9.50
2023-02-06T15:01:57.700Z,8.90
2023-02-06T15:04:27.166Z,8.37
2023-02-06T15:06:58.464Z,9.80
2023-02-06T15:09:28.435Z,10.20
2023-02-06T15:11:57.648Z,6.63
2023-02-06T15:14:27.105Z,6.77
2023-02-06T15:16:59.311Z,8.97
2023-02-06T15:19:28.568Z,8.40
2023-02-06T15:22:02.036Z,9.77
2023-02-06T15:24:51.393Z,10.00
2023-02-06T15:27:23.575Z,4.27
2023-02-06T15:29:52.484Z,7.13
2023-02-06T15:32:24.764Z,8.53
2023-02-06T15:34:53.215Z,7.27
2023-02-06T15:37:24.066Z,8.20
2023-02-06T15:39:52.491Z,8.80
2023-02-06T15:42:21.422Z,8.33
2023-02-06T15:44:50.239Z,7.17
2023-02-06T15:47:19.377Z,8.17
2023-02-06T15:49:48.885Z,8.20
2023-02-06T15:52:33.108Z,7.70
2023-02-06T15:55:03.423Z,5.50
2023-02-06T15:57:33.693Z,6.10
2023-02-06T16:00:02.124Z,6.18
2023-02-06T16:02:33.150Z,6.90
2023-02-06T16:05:01.868Z,11.37
2023-02-06T16:07:31.942Z,9.80
2023-02-06T16:10:05.935Z,8.80
2023-02-06T16:12:36.078Z,7.93
2023-02-06T16:15:05.745Z,9.00
2023-02-06T16:17:35.681Z,11.23
2023-02-06T16:20:05.034Z,5.40
2023-02-06T16:22:34.222Z,6.00
2023-02-06T16:25:16.334Z,9.00
2023-02-06T16:27:46.851Z,3.93
2023-02-06T16:30:23.165Z,12.00
2023-02-06T16:32:51.876Z,10.47
2023-02-06T16:35:22.626Z,10.07
2023-02-06T16:37:51.195Z,10.00
2023-02-06T16:40:19.503Z,8.60
2023-02-06T16:42:49.443Z,9.50
2023-02-06T16:45:19.417Z,9.93
2023-02-06T16:47:47.947Z,11.57
2023-02-06T16:50:16.419Z,8.90
2023-02-06T16:52:48.782Z,11.43
2023-02-06T16:55:19.711Z,11.40
2023-02-06T16:57:51.640Z,10.10
2023-02-06T17:00:20.981Z,10.30
2023-02-06T17:02:52.027Z,12.20
2023-02-06T17:05:21.213Z,9.70
2023-02-06T17:07:50.661Z,8.33
2023-02-06T17:10:19.646Z,10.63
2023-02-06T17:12:48.197Z,9.73
2023-02-06T17:15:18.903Z,9.60
2023-02-06T17:17:47.655Z,9.43
2023-02-06T17:20:21.938Z,6.20
2023-02-06T17:22:50.974Z,10.17
2023-02-06T17:25:19.376Z,10.57
2023-02-06T17:27:47.735Z,9.50
2023-02-06T17:30:19.473Z,12.77
2023-02-06T17:32:49.076Z,10.90
2023-02-06T17:35:17.886Z,14.27
2023-02-06T17:37:46.667Z,11.93
2023-02-06T17:40:19.076Z,17.10
2023-02-06T17:42:47.363Z,14.10
2023-02-06T17:45:15.657Z,17.80
2023-02-06T17:47:44.047Z,14.10
2023-02-06T17:50:15.422Z,16.00
2023-02-06T17:52:43.659Z,11.30
2023-02-06T17:55:12.318Z,12.73
2023-02-06T17:57:40.741Z,14.17
2023-02-06T18:00:10.459Z,18.93
2023-02-06T18:02:38.974Z,12.00
2023-02-06T18:05:07.586Z,12.87
2023-02-06T18:07:38.654Z,10.43
2023-02-06T18:10:07.316Z,12.50
2023-02-06T18:12:36.050Z,9.50
2023-02-06T18:15:04.810Z,9.70
2023-02-06T18:17:33.122Z,13.47
2023-02-06T18:20:01.642Z,13.97
2023-02-06T18:22:29.984Z,14.40
2023-02-06T18:25:01.042Z,14.83
2023-02-06T18:27:29.893Z,13.77
2023-02-06T18:29:58.856Z,13.03
2023-02-06T18:32:27.928Z,13.73
2023-02-06T18:34:56.220Z,13.87
2023-02-06T18:37:24.459Z,13.67
2023-02-06T18:39:54.152Z,14.33
2023-02-06T18:42:41.494Z,15.53
2023-02-06T18:45:10.306Z,12.50
2023-02-06T18:47:39.967Z,12.87
2023-02-06T18:50:08.445Z,12.03
2023-02-06T18:52:36.946Z,12.57
2023-02-06T18:55:05.339Z,11.50
2023-02-06T18:57:35.599Z,11.43
2023-02-06T19:00:05.344Z,10.50
2023-02-06T19:02:33.651Z,14.20
2023-02-06T19:05:02.078Z,11.67
2023-02-06T19:07:30.462Z,11.50
2023-02-06T19:09:59.384Z,16.40
2023-02-06T19:12:29.184Z,12.93
2023-02-06T19:15:00.839Z,15.00
2023-02-06T19:17:29.962Z,11.77
2023-02-06T19:19:58.770Z,15.87
2023-02-06T19:22:27.337Z,14.87
2023-02-06T19:24:56.978Z,14.77
2023-02-06T19:27:26.431Z,13.27
2023-02-06T19:29:54.994Z,17.73
2023-02-06T19:32:26.181Z,14.47
2023-02-06T19:34:54.547Z,15.57
2023-02-06T19:37:23.120Z,13.57
2023-02-06T19:39:51.665Z,8.10
2023-02-06T19:42:24.193Z,10.57
2023-02-06T19:44:56.031Z,14.57
2023-02-06T19:47:29.361Z,13.93
2023-02-06T19:49:59.677Z,16.43
2023-02-06T19:52:28.628Z,10.97
2023-02-06T19:54:57.071Z,8.77
2023-02-06T19:57:27.652Z,10.53
2023-02-06T19:59:56.107Z,11.13
2023-02-06T20:02:24.618Z,17.70
2023-02-06T20:04:54.560Z,18.03
2023-02-06T20:07:23.083Z,17.50
2023-02-06T20:09:52.515Z,15.60
2023-02-06T20:12:20.774Z,20.30
2023-02-06T20:14:49.275Z,16.47
2023-02-06T20:17:18.605Z,15.50
2023-02-06T20:19:46.815Z,19.07
2023-02-06T20:22:17.619Z,16.57
2023-02-06T20:24:45.946Z,15.00
2023-02-06T20:27:15.159Z,17.27
2023-02-06T20:29:44.464Z,16.67
2023-02-06T20:32:15.464Z,16.57
2023-02-06T20:34:53.601Z,19.00
2023-02-06T20:37:23.322Z,16.03
2023-02-06T20:39:51.576Z,14.83
2023-02-06T20:42:22.318Z,17.47
2023-02-06T20:44:51.493Z,18.83
2023-02-06T20:47:19.921Z,19.03
2023-02-06T20:49:49.743Z,16.90
2023-02-06T20:52:19.122Z,20.07
2023-02-06T20:54:49.011Z,17.13
2023-02-06T20:57:17.328Z,16.40
2023-02-06T20:59:45.683Z,16.20
2023-02-06T21:02:13.964Z,17.53
2023-02-06T21:04:42.390Z,16.90
2023-02-06T21:07:10.859Z,17.17
2023-02-06T21:09:39.110Z,17.83
2023-02-06T21:12:08.860Z,19.00
2023-02-06T21:14:37.077Z,19.37
2023-02-06T21:17:05.333Z,16.80
2023-02-06T21:19:33.565Z,17.57
2023-02-06T21:22:02.064Z,15.53
2023-02-06T21:24:30.355Z,17.30
2023-02-06T21:26:58.632Z,16.10
2023-02-06T21:29:28.381Z,16.50
2023-02-06T21:32:11.347Z,16.53
2023-02-06T21:34:41.385Z,16.10
2023-02-06T21:37:09.773Z,18.40
2023-02-06T21:39:38.889Z,15.07
2023-02-06T21:42:07.248Z,14.07
2023-02-06T21:44:38.030Z,16.20
2023-02-06T21:47:06.312Z,14.03
2023-02-06T21:49:34.622Z,14.27
2023-02-06T21:52:02.809Z,14.37
2023-02-06T21:54:31.111Z,15.03
2023-02-06T21:56:59.454Z,14.83
2023-02-06T21:59:27.767Z,15.27
2023-02-06T22:01:57.427Z,14.90
2023-02-06T22:04:25.795Z,14.20
2023-02-06T22:06:54.027Z,14.20
2023-02-06T22:09:22.940Z,13.73
2023-02-06T22:11:51.401Z,11.93
2023-02-06T22:14:19.981Z,13.60
2023-02-06T22:16:48.230Z,15.40
2023-02-06T22:19:18.500Z,12.87
2023-02-06T22:21:46.985Z,12.03
2023-02-06T22:24:15.556Z,12.30
2023-02-06T22:26:47.081Z,13.40
2023-02-06T22:29:16.175Z,14.03
2023-02-06T22:31:45.135Z,12.63
2023-02-06T22:34:16.375Z,12.40
2023-02-06T22:36:46.055Z,12.27
2023-02-06T22:39:15.096Z,11.10
2023-02-06T22:41:44.741Z,11.70
2023-02-06T22:44:16.210Z,11.30
2023-02-06T22:46:45.400Z,15.23
2023-02-06T22:49:13.730Z,12.00
2023-02-06T22:51:43.281Z,10.60
2023-02-06T22:54:13.301Z,10.20
2023-02-06T22:56:42.348Z,11.80
2023-02-06T22:59:11.674Z,9.10
2023-02-06T23:01:41.196Z,10.80
2023-02-06T23:04:12.493Z,9.80
2023-02-06T23:06:40.715Z,10.40
2023-02-06T23:09:09.958Z,9.70
2023-02-06T23:11:39.538Z,11.03
2023-02-06T23:14:08.388Z,8.73
2023-02-06T23:16:37.042Z,10.40
2023-02-06T23:19:06.428Z,10.63
2023-02-06T23:21:35.811Z,10.37
2023-02-06T23:24:04.487Z,10.33
2023-02-06T23:26:32.873Z,10.00
2023-02-06T23:29:03.430Z,8.67
2023-02-06T23:31:32.102Z,9.07
2023-02-06T23:34:00.654Z,9.53
2023-02-06T23:36:29.446Z,9.33
2023-02-06T23:38:57.915Z,9.50
2023-02-06T23:41:27.668Z,9.63
2023-02-06T23:43:57.237Z,10.50
2023-02-06T23:46:27.718Z,8.30
2023-02-06T23:48:56.128Z,9.93
2023-02-06T23:51:24.808Z,9.47
2023-02-06T23:53:53.371Z,9.43
2023-02-06T23:56:22.372Z,11.83
2023-02-06T23:58:51.067Z,10.00
